White Sulphur Springs, West Virginia
Current Conditions -  °F | °C
As of 9:15 PM on Sunday 25 Jan 2015 (Local Time) from KLWB Reporting Station
Overcast Overcast  
Wind Chill: 30°   Ceiling: 6000
Heat Index: 37°   Visibility: 10mi
Dew Point: 33°   Wind: 8mph
Humidity: 89%   Direction: 20°NNE
Pressure: 29.73"   Gusts: NA
Location:  37.8°N, 80.3°W
Report Text: KLWB 260215Z AUTO 02007KT 10SM BKN060 OVC070 03/01 A2973 RMK AO2 T00250008
Loading
Personal Weather Stations






























Interactive Weather Map New forecast layout! Learn more

10-Day Weather Forecast

Advertisements
Track Severe Weather on mobile